Terminal Aerodrome Forecast
Issued by NWS

Home | Current Version | Previous Version | Text Only | Print | Product List | Glossary On
Versions: 1 2 3 4 5 6 7 8 9 10 11 12 13 14 15 16 17 18 19 20 21 22 23 24
000
FTUS43 KDLH 211130
TAFBRD
TAF
KBRD 211130Z 2112/2212 VRB03KT 5SM BR SCT100 BKN140
      TEMPO 2112/2114 3SM BR
     FM211800 36004KT 6SM BR SCT030 BKN100
     FM220200 03006KT 6SM BR SCT007 OVC015
     FM220700 04008KT 5SM BR BKN007=

USA.gov is the U.S. government's official web portal to all federal, state and local government web resources and services.